Terminal Aerodrome Forecast
Issued by NWS Duluth, MN

Home | Current Version | Previous Version | Text Only | Print | Product List | Glossary On
Versions: 1 2 3 4 5 6 7 8 9 10 11 12 13 14 15 16 17 18 19 20 21 22 23 24 25 26 27 28 29 30 31
000
FTUS43 KDLH 202324
TAFINL
TAF
KINL 202324Z 2100/2124 16006KT 3SM -RA BR OVC004
     FM210200 VRB03KT 1SM -RA BR OVC004
     FM210400 27009KT 3SM BR SCT004
     FM210900 25004KT 3/4SM BR SCT002 OVC004
     FM211400 21005KT 3SM BR BKN010
     FM211600 20006KT P6SM SCT250=

USA.gov is the U.S. government's official web portal to all federal, state and local government web resources and services.